Adel, OR

4:17 PM PDT on August 01, 2014 (GMT -0700)
RAWS CATNIP MOUNTAIN NV US (MCATN2) Elev 5750 ft | 41.92 °N, 119.50 °W | Change Station

Current weather conditions updated 50 minutes ago

Partly Cloudy
Partly Cloudy
86 °F
Feels Like 83 °F
N
8
Wind Variable Wind from WNW
Gusts 22.0 mph

Tomorrow is forecast to be Warmer than today.

Today
High -- | Low -- °F
--% Chance of Precip.
Yesterday
High -- | Low -- °F
Precip. -- in
5:51 AM 8:17 PM
Waxing Crescent, 30% visible
Pressure 30.10 in
Visibility 10.0 miles
Clouds Few 12000 ft
Heat Index 83 °F
Dew Point 40 °F
Humidity 20%
Rainfall 0.00 in
Snow Depth Not available.
UV 7 out of 12
Pollen 3.30 out of 12
Air Quality Not available.
Flu Activity Not available.
METAR KLKV 012255Z AUTO 21008KT 10SM FEW120 33/03 A3010 RMK AO1

More Conditions Fewer Conditions

Pressure 30.10 in
Visibility 10.0 miles
Clouds Few 12000 ft
Heat Index 83 °F
Dew Point 40 °F
Humidity 20%
Rainfall 0.00 in
Snow Depth Not available.
UV 7 out of 12
Pollen 3.30 out of 12
Air Quality Not available.
Flu Activity Not available.
METAR KLKV 012255Z AUTO 21008KT 10SM FEW120 33/03 A3010 RMK AO1

More Conditions Fewer Conditions

10-Day Weather Forecast

Almanac

Astronomy

Aug. 01, 2014 Rise Set
Actual Time 5:51 AM PDT 8:17 PM PDT
Civil Twilight 5:20 AM PDT 8:49 PM PDT
Nautical Twilight 4:40 AM PDT 9:28 PM PDT
Astronomical Twilight 3:56 AM PDT 10:12 PM PDT
Moon 11:27 AM PDT 10:57 PM PDT
Length of Visible Light 15h 29m
Length of Day
14h 25m
Tomorrow will be 2m 11s shorter.
Waxing Crescent, 30% of the Moon is Illuminated
Today
Waxing Crescent
Aug 3
First Quarter
Aug 10
Full
Aug 17
Last Quarter
Aug 25
New

Today's Extremes

State Highs State Lows

Community

WunderPhotos

Upload Photos

1,739,752 photos uploaded!

Nearby

Snow Depth

Station Depth Elevation
Strawberry 0 in 5760 ft
Sevenmile Marsh 0 in 6200 ft
Fourmile Lake 0 in 6000 ft
Fish Lake 0 in 4665 ft
Diamond Lake 0 in 5315 ft

Earthquake Activity

City Distance Mag. Time & Date
No recent earthquake activity has been reported nearby.
Minimum magnitude displayed is 2.5.

Coastal Water Temperatures

Place Temperature
No Stations Reporting

Nearby Weather Stations

Station Location Temp. Heat Index Dew Point Humidity Wind Precip. Elev Updated Type
RAWS CATNIP MOUNTAIN NV, Adel, OR 86 °F 83 °F 40 °F 20% WNW  at  8 mph 0.00 in / hr 5750 ft 3:27 PM PDT MADIS
RAWS BARREL SPRINGS NV, Fort Bidwell, CA 85 °F 82 °F 35 °F 17% West  at  14 mph 0.00 in / hr 5730 ft 2:59 PM PDT MADIS
RAWS ROCK CREEK OR, Plush, OR 80 °F 79 °F 44 °F 28% East  at  13 mph 0.00 in / hr 5649 ft 3:27 PM PDT MADIS

Show More Stations Show Fewer Stations